Time;durP1;ratioP1;P1;durP2;ratioP2;P2;SDS_P1;SDS_P2;PMS_P1;PMS_P2;Temp;Humidity;BMP_temperature;BMP_pressure;BME280_temperature;BME280_humidity;BME280_pressure;Samples;Min_cycle;Max_cycle;Signal;HPM_P1;HPM_P2
2021/07/08 00:01:13;;;;;;;6.15;3.95;;;19.10;87.30;;;;;;5012583;28;20040;-63
2021/07/08 00:03:38;;;;;;;7.78;3.90;;;19.10;87.90;;;;;;5013407;28;20033;-63
2021/07/08 00:06:04;;;;;;;6.50;3.60;;;19.00;88.20;;;;;;5009534;28;20476;-63
2021/07/08 00:08:29;;;;;;;8.63;4.00;;;18.90;89.30;;;;;;5025672;28;20627;-63
2021/07/08 00:10:55;;;;;;;7.18;4.05;;;18.90;88.80;;;;;;5008576;28;20054;-63
2021/07/08 00:13:22;;;;;;;5.15;3.63;;;18.90;88.90;;;;;;5011489;28;20116;-63
2021/07/08 00:15:48;;;;;;;5.55;3.70;;;18.90;89.10;;;;;;5010703;28;20135;-63
2021/07/08 00:18:13;;;;;;;5.78;3.55;;;18.90;89.10;;;;;;5010881;28;20104;-64
2021/07/08 00:20:39;;;;;;;7.40;3.70;;;18.90;88.90;;;;;;5013164;28;20212;-63
2021/07/08 00:23:05;;;;;;;7.45;4.28;;;19.00;89.40;;;;;;5018127;28;20036;-63
2021/07/08 00:25:31;;;;;;;10.27;4.28;;;19.00;89.40;;;;;;5021993;28;20021;-63
2021/07/08 00:27:57;;;;;;;5.82;3.50;;;19.00;90.00;;;;;;5014849;28;20550;-63
2021/07/08 00:30:23;;;;;;;6.97;3.97;;;19.00;89.00;;;;;;5008119;28;20034;-63
2021/07/08 00:32:49;;;;;;;7.10;3.90;;;18.90;89.20;;;;;;5018092;28;20728;-63
2021/07/08 00:35:15;;;;;;;10.90;4.60;;;18.90;89.80;;;;;;5020135;28;20052;-63
2021/07/08 00:37:40;;;;;;;6.03;3.75;;;18.80;89.80;;;;;;5008665;28;20037;-63
2021/07/08 00:40:07;;;;;;;5.50;3.85;;;18.80;90.10;;;;;;5013633;28;20033;-63
2021/07/08 00:42:33;;;;;;;7.05;3.92;;;18.80;90.10;;;;;;5007757;28;20361;-63
2021/07/08 00:44:58;;;;;;;9.52;3.97;;;18.80;90.20;;;;;;5010615;28;20076;-63
2021/07/08 00:47:24;;;;;;;11.25;4.28;;;18.80;90.40;;;;;;5006969;28;20041;-63
2021/07/08 00:49:58;;;;;;;6.80;4.00;;;18.80;90.40;;;;;;5036658;28;20056;-63
2021/07/08 00:52:24;;;;;;;4.25;3.83;;;18.90;90.40;;;;;;5006241;28;20065;-63
2021/07/08 00:54:49;;;;;;;10.95;3.97;;;18.90;90.50;;;;;;5013677;28;20397;-63
2021/07/08 00:57:15;;;;;;;8.40;4.25;;;18.90;90.20;;;;;;5016982;28;20618;-64
2021/07/08 00:59:45;;;;;;;8.20;3.55;;;18.90;90.30;;;;;;5007572;28;20618;-63
2021/07/08 01:02:14;;;;;;;8.90;4.00;;;19.00;90.50;;;;;;5022326;28;20045;-62
2021/07/08 01:04:48;;;;;;;7.20;4.10;;;18.90;90.00;;;;;;5009574;28;20037;-62
2021/07/08 01:07:15;;;;;;;6.78;3.60;;;18.90;90.40;;;;;;5006749;28;20040;-62
2021/07/08 01:09:40;;;;;;;8.25;4.07;;;18.90;90.60;;;;;;5022574;28;20507;-62
2021/07/08 01:12:07;;;;;;;8.63;4.13;;;18.80;90.40;;;;;;5020554;28;20036;-62
2021/07/08 01:14:33;;;;;;;7.75;3.45;;;18.80;90.50;;;;;;5021114;28;20030;-62
2021/07/08 01:16:58;;;;;;;6.32;3.83;;;18.80;90.70;;;;;;5012584;28;20084;-62
2021/07/08 01:19:24;;;;;;;5.35;4.15;;;18.70;91.00;;;;;;5011650;28;20084;-62
2021/07/08 01:21:50;;;;;;;10.07;4.15;;;18.70;90.90;;;;;;5018522;28;20026;-62
2021/07/08 01:24:15;;;;;;;8.48;3.95;;;18.70;90.90;;;;;;5020296;28;20057;-63
2021/07/08 01:26:41;;;;;;;10.52;4.50;;;18.70;91.00;;;;;;5015850;28;20436;-62
2021/07/08 01:29:07;;;;;;;8.65;4.38;;;18.60;90.80;;;;;;5037036;28;20389;-62
2021/07/08 01:31:32;;;;;;;13.07;4.32;;;18.60;91.10;;;;;;5015357;28;20235;-62
2021/07/08 01:33:58;;;;;;;9.38;4.60;;;18.50;91.20;;;;;;5020870;28;20030;-61
2021/07/08 01:36:23;;;;;;;7.00;4.40;;;18.50;91.10;;;;;;5022139;28;20780;-61
2021/07/08 01:38:49;;;;;;;7.25;4.18;;;18.50;91.20;;;;;;5018803;28;20026;-62
2021/07/08 01:41:14;;;;;;;5.97;4.15;;;18.40;91.20;;;;;;5015660;28;20136;-62
2021/07/08 01:43:41;;;;;;;13.48;4.47;;;18.40;91.20;;;;;;5022000;28;20025;-62
2021/07/08 01:46:07;;;;;;;9.95;4.95;;;18.40;91.60;;;;;;5011934;28;20046;-62
2021/07/08 01:48:33;;;;;;;7.07;4.45;;;18.40;91.60;;;;;;5016938;28;20081;-62
2021/07/08 01:51:04;;;;;;;6.28;4.35;;;18.30;91.40;;;;;;5013738;28;20113;-62
2021/07/08 01:53:30;;;;;;;8.55;4.72;;;18.30;91.40;;;;;;5023469;28;20037;-62
2021/07/08 01:55:57;;;;;;;12.05;5.38;;;18.30;91.30;;;;;;5009677;28;20030;-62
2021/07/08 01:58:23;;;;;;;6.43;4.40;;;18.30;91.30;;;;;;5022338;28;20037;-62
2021/07/08 02:00:49;;;;;;;6.45;4.47;;;18.30;91.30;;;;;;5022305;28;20025;-62
2021/07/08 02:03:15;;;;;;;7.25;4.32;;;18.30;91.40;;;;;;5008741;28;20102;-62
2021/07/08 02:05:40;;;;;;;10.20;5.10;;;18.20;91.70;;;;;;5021868;28;20056;-62
2021/07/08 02:08:06;;;;;;;7.35;3.97;;;18.20;91.50;;;;;;5012274;28;20107;-62
2021/07/08 02:10:32;;;;;;;8.30;4.20;;;18.20;91.50;;;;;;5022930;28;20030;-62
2021/07/08 02:12:57;;;;;;;5.47;3.92;;;18.10;91.30;;;;;;5021301;28;20041;-62
2021/07/08 02:15:23;;;;;;;10.82;4.40;;;18.10;91.60;;;;;;5024202;28;20112;-62
2021/07/08 02:17:49;;;;;;;9.15;4.57;;;18.10;91.60;;;;;;5022234;28;20033;-62
2021/07/08 02:20:15;;;;;;;8.65;4.18;;;18.10;91.70;;;;;;5017623;28;20037;-62
2021/07/08 02:22:40;;;;;;;7.82;3.72;;;18.10;91.60;;;;;;5009527;28;20030;-62
2021/07/08 02:25:07;;;;;;;7.13;4.07;;;18.40;91.70;;;;;;5007450;28;20038;-62
2021/07/08 02:27:33;;;;;;;7.50;4.13;;;18.00;92.00;;;;;;5013489;28;20121;-62
2021/07/08 02:29:58;;;;;;;6.55;3.65;;;18.00;91.90;;;;;;5016119;28;20113;-62
2021/07/08 02:32:24;;;;;;;8.52;4.00;;;18.00;92.00;;;;;;5009352;28;20026;-62
2021/07/08 02:34:49;;;;;;;7.88;3.95;;;17.90;91.80;;;;;;5018878;28;20022;-62
2021/07/08 02:37:15;;;;;;;5.65;3.60;;;17.90;91.90;;;;;;5009271;28;20105;-62
2021/07/08 02:39:40;;;;;;;4.20;3.35;;;17.80;92.20;;;;;;5011340;28;20034;-62
2021/07/08 02:42:06;;;;;;;5.13;3.78;;;17.80;92.00;;;;;;5009851;28;20120;-62
2021/07/08 02:44:32;;;;;;;5.60;3.33;;;17.80;91.90;;;;;;5012907;28;20510;-62
2021/07/08 02:46:57;;;;;;;7.40;4.20;;;17.80;92.20;;;;;;5010558;28;20050;-62
2021/07/08 02:49:24;;;;;;;9.45;4.25;;;17.70;92.00;;;;;;5019660;28;20030;-62
2021/07/08 02:51:49;;;;;;;6.30;4.30;;;17.70;92.30;;;;;;5018642;28;20040;-63
2021/07/08 02:54:15;;;;;;;5.15;3.88;;;17.70;92.30;;;;;;5008877;28;20030;-62
2021/07/08 02:56:41;;;;;;;8.45;4.15;;;17.70;92.30;;;;;;5010756;28;20026;-62
2021/07/08 02:59:06;;;;;;;11.05;5.22;;;17.70;92.50;;;;;;5013835;28;20469;-62
2021/07/08 03:01:34;;;;;;;6.10;4.32;;;17.60;92.30;;;;;;5016408;28;20455;-62
2021/07/08 03:04:00;;;;;;;8.52;3.83;;;17.60;92.30;;;;;;5009319;28;20033;-62
2021/07/08 03:06:25;;;;;;;7.80;4.05;;;17.60;92.50;;;;;;5022954;28;20399;-62
2021/07/08 03:08:51;;;;;;;11.35;4.03;;;17.50;92.50;;;;;;5017211;28;20029;-62
2021/07/08 03:11:16;;;;;;;6.43;4.35;;;17.50;92.40;;;;;;5008262;28;20540;-62
2021/07/08 03:13:42;;;;;;;6.30;3.92;;;17.50;92.50;;;;;;5008756;28;20038;-62
2021/07/08 03:16:08;;;;;;;12.18;4.40;;;17.50;92.70;;;;;;5008276;28;20021;-62
2021/07/08 03:18:33;;;;;;;8.43;4.30;;;17.50;92.70;;;;;;5017717;28;20033;-63
2021/07/08 03:20:59;;;;;;;8.40;4.30;;;17.50;92.80;;;;;;5009331;28;20465;-62
2021/07/08 03:23:24;;;;;;;8.10;4.65;;;17.50;92.80;;;;;;5010600;28;20359;-62
2021/07/08 03:25:50;;;;;;;5.20;4.30;;;17.50;92.80;;;;;;5026792;28;20377;-63
2021/07/08 03:28:15;;;;;;;10.40;4.28;;;17.50;92.90;;;;;;5021064;28;20658;-62
2021/07/08 03:30:41;;;;;;;9.93;5.03;;;17.40;92.70;;;;;;5011258;28;20488;-62
2021/07/08 03:33:06;;;;;;;10.32;4.90;;;17.50;92.80;;;;;;5008145;28;20030;-62
2021/07/08 03:35:32;;;;;;;9.77;4.38;;;17.40;93.00;;;;;;5008931;28;20340;-63
2021/07/08 03:37:58;;;;;;;8.07;4.60;;;17.40;93.00;;;;;;5020033;28;20041;-62
2021/07/08 03:40:24;;;;;;;7.63;4.15;;;17.40;93.00;;;;;;5008950;28;20054;-62
2021/07/08 03:42:50;;;;;;;7.10;4.40;;;17.40;93.00;;;;;;5008981;28;20034;-62
2021/07/08 03:45:15;;;;;;;10.30;5.82;;;17.40;93.10;;;;;;5009032;28;20053;-62
2021/07/08 03:47:41;;;;;;;9.30;4.53;;;17.40;92.80;;;;;;5015108;28;20110;-62
2021/07/08 03:50:08;;;;;;;9.18;4.60;;;17.40;93.00;;;;;;5017736;28;20057;-62
2021/07/08 03:52:33;;;;;;;8.55;4.65;;;17.40;93.00;;;;;;5010079;28;20108;-62
2021/07/08 03:54:59;;;;;;;11.65;4.50;;;17.40;92.70;;;;;;5007998;28;20033;-62
2021/07/08 03:57:24;;;;;;;7.47;4.55;;;17.50;92.60;;;;;;5011376;28;20060;-62
2021/07/08 03:59:50;;;;;;;6.95;4.80;;;17.50;92.70;;;;;;5024425;28;20029;-62
2021/07/08 04:02:15;;;;;;;8.93;5.22;;;17.40;92.80;;;;;;5018311;28;20033;-62
2021/07/08 04:04:41;;;;;;;15.85;5.13;;;17.40;92.60;;;;;;5012167;28;20726;-62
2021/07/08 04:07:07;;;;;;;13.13;5.38;;;17.40;92.80;;;;;;5022235;28;20041;-62
2021/07/08 04:09:33;;;;;;;11.13;4.50;;;17.50;92.90;;;;;;5008924;28;20127;-62
2021/07/08 04:11:59;;;;;;;8.43;5.05;;;17.40;93.00;;;;;;5007463;28;20037;-62
2021/07/08 04:14:25;;;;;;;11.40;4.80;;;17.50;93.00;;;;;;5008415;28;20039;-62
2021/07/08 04:16:50;;;;;;;11.00;4.60;;;17.60;92.90;;;;;;5011051;28;20041;-62
2021/07/08 04:19:16;;;;;;;10.95;4.88;;;17.50;92.90;;;;;;5007407;28;20026;-63
2021/07/08 04:21:41;;;;;;;9.10;4.65;;;17.50;92.60;;;;;;5020109;28;20060;-63
2021/07/08 04:24:07;;;;;;;13.45;5.25;;;17.60;92.70;;;;;;5018922;28;20103;-62
2021/07/08 04:26:32;;;;;;;8.85;4.93;;;17.60;92.60;;;;;;5009600;28;20030;-62
2021/07/08 04:28:58;;;;;;;9.07;5.07;;;17.60;92.40;;;;;;5007940;28;20073;-62
2021/07/08 04:31:23;;;;;;;6.72;4.93;;;17.70;92.10;;;;;;5017990;28;20022;-63
2021/07/08 04:33:49;;;;;;;11.40;4.75;;;17.80;92.10;;;;;;5023409;28;20025;-62
2021/07/08 04:36:15;;;;;;;7.72;4.75;;;17.80;92.10;;;;;;5011094;28;20076;-62
2021/07/08 04:38:41;;;;;;;10.38;4.78;;;17.70;92.00;;;;;;5008074;28;20042;-62
2021/07/08 04:41:07;;;;;;;6.05;4.38;;;17.90;92.20;;;;;;5006964;28;20101;-62
2021/07/08 04:43:33;;;;;;;7.18;5.20;;;17.90;91.90;;;;;;5009208;28;20118;-63
2021/07/08 04:45:58;;;;;;;7.53;4.95;;;17.90;91.70;;;;;;5018940;28;20061;-62
2021/07/08 04:48:24;;;;;;;10.77;3.80;;;17.90;91.90;;;;;;5020661;28;20105;-63
2021/07/08 04:50:49;;;;;;;11.80;4.85;;;18.00;91.80;;;;;;5012844;28;20026;-63
2021/07/08 04:53:16;;;;;;;8.98;4.43;;;17.90;91.70;;;;;;5010849;28;20013;-63
2021/07/08 04:55:41;;;;;;;7.28;4.75;;;18.10;91.70;;;;;;5010611;28;20088;-62
2021/07/08 04:58:07;;;;;;;10.10;4.93;;;18.10;91.50;;;;;;5006745;28;20473;-62
2021/07/08 05:00:32;;;;;;;8.13;4.90;;;18.20;91.20;;;;;;5011161;28;20037;-63
2021/07/08 05:02:58;;;;;;;11.57;4.80;;;18.20;91.00;;;;;;5007527;28;20021;-63
2021/07/08 05:05:23;;;;;;;9.70;4.72;;;18.30;91.10;;;;;;5012178;28;20042;-63
2021/07/08 05:07:55;;;;;;;10.50;5.03;;;18.30;91.20;;;;;;5014660;28;20046;-63
2021/07/08 05:10:20;;;;;;;11.23;5.45;;;18.30;91.10;;;;;;5011530;28;20029;-63
2021/07/08 05:12:46;;;;;;;6.75;4.65;;;18.30;91.20;;;;;;5015422;28;20385;-61
2021/07/08 05:15:14;;;;;;;8.65;4.45;;;18.40;91.30;;;;;;5020755;28;20022;-62
2021/07/08 05:17:39;;;;;;;5.30;4.55;;;18.40;91.10;;;;;;5016001;28;20480;-62
2021/07/08 05:20:06;;;;;;;7.75;4.38;;;18.50;91.10;;;;;;5010810;28;20030;-62
2021/07/08 05:22:35;;;;;;;9.02;5.00;;;18.50;90.90;;;;;;5010718;28;20081;-62
2021/07/08 05:25:01;;;;;;;7.20;4.57;;;18.60;91.00;;;;;;5010196;28;20029;-62
2021/07/08 05:27:27;;;;;;;10.35;5.18;;;18.70;90.90;;;;;;5023620;28;20529;-62
2021/07/08 05:29:52;;;;;;;12.75;5.10;;;18.70;90.60;;;;;;5014048;28;20029;-62
2021/07/08 05:32:18;;;;;;;11.15;4.88;;;18.70;90.60;;;;;;5010423;28;20026;-62
2021/07/08 05:34:44;;;;;;;9.40;5.07;;;18.70;90.80;;;;;;5011322;28;20121;-62
2021/07/08 05:37:09;;;;;;;7.85;4.93;;;18.80;90.90;;;;;;5016632;28;20022;-62
2021/07/08 05:39:35;;;;;;;7.45;4.80;;;18.80;90.60;;;;;;5016059;28;20500;-62
2021/07/08 05:42:01;;;;;;;14.07;7.45;;;18.90;90.20;;;;;;5023668;28;20032;-62
2021/07/08 05:44:27;;;;;;;13.95;9.75;;;19.00;90.20;;;;;;5027411;28;20124;-63
2021/07/08 05:46:52;;;;;;;14.40;8.32;;;19.00;89.70;;;;;;5013497;28;20034;-62
2021/07/08 05:49:18;;;;;;;15.32;9.27;;;19.00;90.00;;;;;;5014126;28;20037;-63
2021/07/08 05:51:44;;;;;;;14.93;8.30;;;19.30;89.80;;;;;;5016149;28;20014;-61
2021/07/08 05:54:09;;;;;;;19.13;15.27;;;19.10;88.80;;;;;;5028919;28;20032;-62
2021/07/08 05:56:35;;;;;;;10.23;6.00;;;19.30;89.00;;;;;;5012520;28;20030;-61
2021/07/08 05:59:00;;;;;;;12.27;9.38;;;19.30;87.90;;;;;;5022525;28;20097;-61
2021/07/08 06:01:26;;;;;;;12.75;6.00;;;19.40;88.80;;;;;;5017514;28;20476;-61
2021/07/08 06:03:52;;;;;;;14.75;8.98;;;19.40;87.80;;;;;;5026486;28;20026;-61
2021/07/08 06:06:18;;;;;;;10.85;6.32;;;19.50;87.70;;;;;;5024560;28;20041;-62
2021/07/08 06:08:44;;;;;;;12.85;7.05;;;19.50;86.90;;;;;;5023894;28;20033;-62
2021/07/08 06:11:10;;;;;;;16.08;7.93;;;19.60;87.80;;;;;;5009097;28;20730;-62
2021/07/08 06:13:36;;;;;;;11.35;7.60;;;19.60;86.30;;;;;;5015559;28;20136;-61
2021/07/08 06:16:02;;;;;;;9.27;5.32;;;19.70;86.70;;;;;;5015489;28;20108;-61
2021/07/08 06:18:27;;;;;;;12.80;5.47;;;19.80;85.30;;;;;;5020658;28;20194;-62
2021/07/08 06:20:53;;;;;;;14.52;5.82;;;19.80;86.60;;;;;;5020085;28;20053;-61
2021/07/08 06:23:20;;;;;;;11.68;6.80;;;19.80;85.40;;;;;;5009494;28;20436;-61
2021/07/08 06:25:46;;;;;;;11.10;6.28;;;19.90;85.20;;;;;;5022223;28;20119;-62
2021/07/08 06:28:12;;;;;;;10.00;5.38;;;20.00;85.90;;;;;;5022841;28;20053;-63
2021/07/08 06:30:37;;;;;;;26.15;9.20;;;20.00;84.10;;;;;;5017246;28;20030;-63
2021/07/08 06:33:03;;;;;;;13.07;6.10;;;20.10;85.70;;;;;;5019629;28;20026;-63
2021/07/08 06:35:29;;;;;;;18.98;5.93;;;20.00;83.80;;;;;;5009706;28;20030;-63
2021/07/08 06:37:54;;;;;;;23.63;9.20;;;20.00;84.60;;;;;;5018391;28;20393;-63
2021/07/08 06:40:20;;;;;;;17.05;5.95;;;20.00;84.80;;;;;;5008917;28;20061;-64
2021/07/08 06:42:46;;;;;;;15.25;6.13;;;20.10;84.90;;;;;;5020384;28;20030;-63
2021/07/08 06:45:13;;;;;;;19.63;7.43;;;20.30;84.90;;;;;;5009535;28;20026;-63
2021/07/08 06:47:43;;;;;;;16.45;7.07;;;20.00;83.80;;;;;;5011155;28;20037;-63
2021/07/08 06:50:09;;;;;;;12.57;6.57;;;20.40;84.20;;;;;;5028745;28;20496;-63
2021/07/08 06:52:35;;;;;;;12.80;7.90;;;20.50;83.60;;;;;;5022379;28;20038;-62
2021/07/08 06:55:00;;;;;;;15.02;7.32;;;20.60;83.80;;;;;;5010853;28;20443;-63
2021/07/08 06:57:26;;;;;;;21.70;8.73;;;20.60;83.30;;;;;;5026937;28;20400;-63
2021/07/08 06:59:51;;;;;;;14.65;8.70;;;20.80;83.60;;;;;;5010863;28;20116;-63
2021/07/08 07:02:17;;;;;;;18.98;8.50;;;20.80;83.30;;;;;;5017388;28;20030;-62
2021/07/08 07:04:42;;;;;;;17.48;8.35;;;21.10;83.10;;;;;;5016636;28;20037;-63
2021/07/08 07:07:08;;;;;;;13.75;8.82;;;21.40;81.60;;;;;;5020946;28;20034;-63
2021/07/08 07:09:33;;;;;;;18.55;8.05;;;21.70;81.20;;;;;;5021312;28;20048;-63
2021/07/08 07:11:59;;;;;;;19.23;10.50;;;21.70;80.10;;;;;;5024911;28;20021;-63
2021/07/08 07:14:25;;;;;;;26.75;13.43;;;22.10;80.60;;;;;;4997521;28;20042;-63
2021/07/08 07:16:50;;;;;;;19.08;10.50;;;22.20;79.50;;;;;;5022014;28;20033;-63
2021/07/08 07:19:16;;;;;;;16.20;7.60;;;22.40;76.70;;;;;;5019371;28;20034;-62
2021/07/08 07:21:41;;;;;;;12.40;6.45;;;22.40;75.20;;;;;;5016733;28;20060;-63
2021/07/08 07:24:07;;;;;;;14.07;7.13;;;22.40;75.80;;;;;;5012960;28;20361;-62
2021/07/08 07:26:33;;;;;;;11.82;7.57;;;22.20;77.50;;;;;;5010577;28;20048;-63
2021/07/08 07:28:58;;;;;;;14.93;7.95;;;22.30;77.00;;;;;;5008486;28;20026;-62
2021/07/08 07:31:24;;;;;;;17.67;8.05;;;22.40;77.40;;;;;;5015891;28;20034;-62
2021/07/08 07:33:49;;;;;;;14.82;7.82;;;22.50;76.80;;;;;;5015623;28;20033;-62
2021/07/08 07:36:15;;;;;;;15.77;8.02;;;22.50;75.50;;;;;;5015890;28;20036;-62
2021/07/08 07:38:41;;;;;;;14.25;7.40;;;22.70;76.00;;;;;;5025393;28;20061;-63
2021/07/08 07:41:07;;;;;;;13.35;6.95;;;22.70;75.10;;;;;;5008273;28;20056;-62
2021/07/08 07:43:34;;;;;;;21.52;7.53;;;22.70;76.40;;;;;;5012081;28;20500;-62
2021/07/08 07:45:59;;;;;;;17.55;10.27;;;22.60;77.20;;;;;;5014373;28;20388;-62
2021/07/08 07:48:25;;;;;;;16.80;7.43;;;22.80;78.80;;;;;;5018803;28;20029;-62
2021/07/08 07:50:50;;;;;;;12.77;6.15;;;22.80;76.60;;;;;;5016788;28;20157;-63
2021/07/08 07:53:16;;;;;;;12.88;7.18;;;22.90;75.50;;;;;;5017907;28;20028;-64
2021/07/08 07:55:42;;;;;;;13.90;7.03;;;22.90;76.90;;;;;;5024366;28;20029;-63
2021/07/08 07:58:07;;;;;;;17.02;6.82;;;22.80;76.10;;;;;;5020780;28;20037;-62
2021/07/08 08:00:33;;;;;;;16.88;6.30;;;22.80;75.80;;;;;;5011221;28;20022;-61
2021/07/08 08:02:58;;;;;;;20.17;6.72;;;22.80;76.40;;;;;;5008661;28;20034;-62
2021/07/08 08:10:37;;;;;;;13.85;5.38;;;23.10;75.80;;;;;;5012850;28;20087;-62
2021/07/08 08:13:04;;;;;;;13.35;5.85;;;23.10;75.00;;;;;;5024534;28;20570;-62
2021/07/08 08:15:29;;;;;;;19.73;5.38;;;23.40;74.60;;;;;;5013384;28;20471;-61
2021/07/08 08:17:55;;;;;;;9.70;5.00;;;23.50;73.50;;;;;;5014995;28;20044;-62
2021/07/08 08:20:20;;;;;;;39.70;32.33;;;23.70;73.50;;;;;;5014715;28;20025;-62
2021/07/08 08:22:46;;;;;;;22.08;13.57;;;24.00;70.50;;;;;;5011833;28;20113;-62
2021/07/08 08:25:12;;;;;;;16.17;6.00;;;23.90;70.50;;;;;;5014043;28;20104;-61
2021/07/08 08:27:37;;;;;;;12.05;5.30;;;24.10;69.40;;;;;;5016264;28;20088;-61
2021/07/08 08:30:07;;;;;;;15.00;8.13;;;24.40;69.80;;;;;;5007375;28;20022;-61
2021/07/08 08:32:32;;;;;;;18.48;8.75;;;24.30;69.80;;;;;;5011053;28;20030;-61
2021/07/08 08:34:58;;;;;;;14.82;9.25;;;24.40;70.10;;;;;;5013442;28;20024;-61
2021/07/08 08:37:23;;;;;;;19.30;8.60;;;24.50;68.20;;;;;;5015019;28;20553;-61
2021/07/08 08:39:49;;;;;;;12.35;5.53;;;24.00;69.80;;;;;;5023700;28;20531;-61
2021/07/08 08:42:14;;;;;;;22.00;12.52;;;24.00;70.30;;;;;;5021969;28;20492;-62
2021/07/08 08:44:40;;;;;;;27.80;23.70;;;24.40;68.90;;;;;;5018261;28;20030;-63
2021/07/08 08:47:10;;;;;;;14.25;6.30;;;24.50;66.60;;;;;;5015473;28;20029;-62
2021/07/08 08:49:42;;;;;;;10.93;4.40;;;24.50;67.10;;;;;;5025824;28;20021;-63
2021/07/08 08:52:08;;;;;;;9.80;4.03;;;24.60;65.80;;;;;;5030298;28;20021;-61
2021/07/08 08:54:34;;;;;;;11.20;9.07;;;24.70;66.70;;;;;;5016915;28;20022;-61
2021/07/08 08:57:03;;;;;;;17.85;9.63;;;25.10;64.90;;;;;;5024427;28;20034;-62
2021/07/08 08:59:29;;;;;;;16.90;10.95;;;25.20;64.00;;;;;;5018115;28;20079;-62
2021/07/08 09:02:15;;;;;;;16.40;10.05;;;25.30;63.60;;;;;;5016051;28;20033;-61
2021/07/08 09:04:41;;;;;;;9.85;5.25;;;25.30;63.10;;;;;;5019861;28;20037;-61
2021/07/08 09:07:22;;;;;;;7.68;4.25;;;25.20;62.20;;;;;;5023814;28;20049;-62
2021/07/08 09:09:49;;;;;;;34.72;29.65;;;25.10;65.00;;;;;;5017040;28;20481;-63
2021/07/08 09:12:18;;;;;;;9.57;6.20;;;25.10;66.30;;;;;;5010683;28;20033;-63
2021/07/08 09:14:44;;;;;;;23.30;13.32;;;24.90;65.60;;;;;;5017253;28;20720;-62
2021/07/08 09:17:19;;;;;;;52.17;43.30;;;24.80;67.90;;;;;;5038735;28;20108;-62
2021/07/08 09:19:46;;;;;;;13.90;7.47;;;24.90;65.50;;;;;;5021626;28;20030;-62
2021/07/08 09:22:13;;;;;;;17.50;9.10;;;24.80;65.10;;;;;;5017456;28;20038;-60
2021/07/08 09:24:38;;;;;;;10.48;4.65;;;24.50;68.50;;;;;;4997864;28;20128;-63
2021/07/08 09:27:08;;;;;;;22.67;6.93;;;24.70;68.30;;;;;;5029960;28;20055;-62
2021/07/08 09:29:35;;;;;;;21.85;11.07;;;25.00;66.80;;;;;;5042580;28;20476;-62
2021/07/08 09:32:05;;;;;;;15.65;6.72;;;25.20;64.80;;;;;;5014384;28;20567;-62
2021/07/08 09:34:40;;;;;;;9.88;4.70;;;25.30;61.30;;;;;;5020082;28;20042;-62
2021/07/08 09:37:19;;;;;;;13.95;5.10;;;24.90;61.70;;;;;;5011792;28;20479;-61
2021/07/08 09:39:49;;;;;;;11.43;4.22;;;24.70;62.00;;;;;;5007956;28;20117;-61
2021/07/08 09:42:31;;;;;;;13.80;5.28;;;24.90;60.90;;;;;;5010062;28;20042;-61
2021/07/08 09:45:14;;;;;;;14.43;4.50;;;24.90;62.20;;;;;;5014795;28;20113;-61
2021/07/08 09:47:42;;;;;;;7.70;4.45;;;25.00;62.10;;;;;;4988717;28;20034;-60
2021/07/08 09:50:09;;;;;;;19.30;11.43;;;24.80;62.00;;;;;;5017258;28;20025;-60
2021/07/08 09:52:35;;;;;;;32.60;24.75;;;25.00;62.70;;;;;;5019556;28;20060;-60
2021/07/08 09:57:40;;;;;;;13.02;4.35;;;25.00;63.10;;;;;;5008529;28;20041;-61
2021/07/08 10:00:18;;;;;;;7.75;4.65;;;24.60;60.60;;;;;;5007258;28;20038;-61
2021/07/08 10:02:48;;;;;;;14.93;9.43;;;24.50;60.00;;;;;;5010183;28;20479;-61
2021/07/08 10:05:14;;;;;;;16.17;10.35;;;24.60;62.20;;;;;;5009376;28;20045;-61
2021/07/08 10:07:39;;;;;;;15.20;7.20;;;24.70;63.70;;;;;;5010188;28;20038;-61
2021/07/08 10:10:06;;;;;;;13.90;8.38;;;24.60;63.30;;;;;;5008787;28;20030;-61
2021/07/08 10:12:32;;;;;;;13.15;6.35;;;24.70;63.20;;;;;;5009536;28;20306;-61
2021/07/08 10:15:00;;;;;;;16.38;8.90;;;24.80;60.50;;;;;;5010092;28;20123;-61
2021/07/08 10:17:25;;;;;;;11.68;6.60;;;24.80;62.30;;;;;;5014165;28;20049;-62
2021/07/08 10:19:52;;;;;;;13.20;4.70;;;24.90;60.90;;;;;;5019141;28;20472;-61
2021/07/08 10:22:17;;;;;;;12.15;5.00;;;25.00;61.50;;;;;;5010000;28;20029;-61
2021/07/08 10:24:43;;;;;;;12.07;5.45;;;24.70;63.30;;;;;;5020355;28;20409;-62
2021/07/08 10:27:11;;;;;;;7.10;4.85;;;24.60;63.20;;;;;;5008534;28;20065;-61
2021/07/08 10:29:38;;;;;;;10.25;6.60;;;24.90;59.80;;;;;;4988380;28;20022;-62
2021/07/08 10:32:05;;;;;;;9.15;3.40;;;25.00;59.00;;;;;;5008266;28;20030;-62
2021/07/08 10:34:40;;;;;;;10.55;4.53;;;24.80;58.60;;;;;;5008320;28;20057;-62
2021/07/08 10:37:07;;;;;;;13.50;11.30;;;25.00;60.10;;;;;;5012027;28;20030;-62
2021/07/08 10:39:33;;;;;;;6.65;4.20;;;25.10;62.20;;;;;;5011380;28;20037;-61
2021/07/08 10:41:58;;;;;;;14.93;7.10;;;25.10;61.20;;;;;;4995816;28;20030;-62
2021/07/08 10:44:38;;;;;;;5.90;2.90;;;25.40;62.60;;;;;;5009338;28;20511;-62
2021/07/08 10:47:04;;;;;;;10.55;4.22;;;25.40;59.20;;;;;;5019228;28;20039;-62
2021/07/08 10:49:40;;;;;;;8.50;4.40;;;25.40;55.90;;;;;;5012947;28;20109;-61
2021/07/08 10:52:12;;;;;;;12.80;7.30;;;25.40;58.50;;;;;;5009298;28;20029;-61
2021/07/08 10:54:37;;;;;;;19.50;13.63;;;25.50;57.20;;;;;;5009331;28;20117;-61
2021/07/08 10:57:03;;;;;;;15.73;11.35;;;25.40;55.00;;;;;;5007400;28;20164;-61
2021/07/08 10:59:41;;;;;;;9.05;3.60;;;25.40;55.00;;;;;;5026937;28;20040;-61
2021/07/08 11:02:07;;;;;;;32.38;26.42;;;25.50;55.60;;;;;;5028528;28;20040;-61
2021/07/08 11:04:45;;;;;;;14.13;9.02;;;25.60;58.00;;;;;;5009878;28;20026;-61
2021/07/08 11:07:15;;;;;;;17.23;14.75;;;25.70;55.20;;;;;;5008445;28;20077;-62
2021/07/08 11:09:57;;;;;;;16.00;11.82;;;25.90;58.10;;;;;;5009023;28;20450;-61
2021/07/08 11:12:35;;;;;;;7.57;2.92;;;25.90;57.00;;;;;;5008574;28;20531;-61
2021/07/08 11:15:03;;;;;;;9.95;5.32;;;25.50;53.90;;;;;;5009433;28;20041;-61
2021/07/08 11:17:40;;;;;;;9.15;2.92;;;25.60;56.80;;;;;;5008524;28;20022;-61
2021/07/08 11:20:31;;;;;;;13.68;8.10;;;25.30;54.00;;;;;;5008806;28;20096;-61
2021/07/08 11:23:21;;;;;;;7.30;4.03;;;25.60;55.50;;;;;;5010116;28;20100;-61
2021/07/08 11:25:46;;;;;;;15.63;4.95;;;25.80;55.20;;;;;;5007432;28;20049;-61
2021/07/08 11:28:29;;;;;;;12.75;3.10;;;26.10;55.20;;;;;;5008556;28;20022;-61
2021/07/08 11:30:59;;;;;;;23.35;17.70;;;25.30;57.10;;;;;;5008910;28;20026;-61
2021/07/08 11:33:24;;;;;;;11.10;4.63;;;25.90;53.70;;;;;;5009239;28;20018;-61
2021/07/08 11:35:56;;;;;;;25.30;17.48;;;26.10;56.70;;;;;;5008633;28;20352;-61
2021/07/08 11:38:22;;;;;;;15.27;10.90;;;26.20;55.90;;;;;;5022340;28;20435;-61
2021/07/08 11:40:49;;;;;;;11.48;2.97;;;26.50;54.60;;;;;;4991465;28;20026;-61
2021/07/08 11:43:32;;;;;;;15.82;10.23;;;26.50;55.00;;;;;;5011347;28;20025;-62
2021/07/08 11:46:08;;;;;;;17.52;12.07;;;26.40;54.70;;;;;;5026698;28;20543;-62
2021/07/08 11:48:36;;;;;;;11.70;8.55;;;26.70;54.30;;;;;;5008392;28;20117;-61
2021/07/08 11:51:12;;;;;;;15.55;10.80;;;26.70;54.70;;;;;;5008418;28;20026;-61
2021/07/08 11:53:38;;;;;;;10.77;7.85;;;26.90;53.40;;;;;;5026160;28;20034;-61
2021/07/08 11:56:04;;;;;;;7.40;4.10;;;26.70;57.00;;;;;;5028211;28;20022;-61
2021/07/08 11:58:32;;;;;;;9.32;4.13;;;26.50;58.20;;;;;;5027629;28;20127;-61
2021/07/08 12:01:12;;;;;;;8.73;5.15;;;26.70;56.30;;;;;;5027569;28;20426;-61
2021/07/08 12:03:57;;;;;;;4.85;2.50;;;26.80;56.30;;;;;;5006097;28;20079;-61
2021/07/08 12:06:24;;;;;;;;;;;26.20;52.20;;;;;;5007784;28;20508;-61
2021/07/08 12:09:01;;;;;;;8.23;2.50;;;26.30;54.50;;;;;;5019709;28;19966;-61
2021/07/08 12:11:32;;;;;;;6.07;2.60;;;25.90;55.60;;;;;;5019719;28;20156;-61
2021/07/08 12:14:01;;;;;;;8.85;4.10;;;25.90;53.20;;;;;;5012952;28;20388;-63
2021/07/08 12:16:33;;;;;;;7.15;4.90;;;25.70;55.00;;;;;;5019065;28;20098;-62
2021/07/08 12:19:03;;;;;;;6.95;3.60;;;25.80;55.60;;;;;;5013933;28;20034;-61
2021/07/08 12:21:38;;;;;;;5.60;2.72;;;25.70;55.80;;;;;;5014202;28;20041;-61
2021/07/08 12:24:13;;;;;;;6.15;2.55;;;25.70;55.80;;;;;;4994440;28;20042;-60
2021/07/08 12:26:40;;;;;;;7.15;3.55;;;25.30;54.50;;;;;;5006794;28;20037;-62
2021/07/08 12:29:25;;;;;;;6.65;3.20;;;25.10;55.40;;;;;;5017545;28;20049;-62
2021/07/08 12:31:54;;;;;;;;;;;25.00;58.40;;;;;;5016899;28;20496;-63
2021/07/08 12:34:25;;;;;;;9.50;4.47;;;25.20;57.20;;;;;;5023373;28;19909;-62
2021/07/08 12:36:52;;;;;;;4.68;2.67;;;25.20;56.80;;;;;;5022936;28;20025;-62
2021/07/08 12:39:24;;;;;;;10.40;5.18;;;25.20;56.40;;;;;;5017297;28;20090;-60
2021/07/08 12:41:49;;;;;;;7.50;3.50;;;25.20;57.70;;;;;;5006898;28;20176;-60
2021/07/08 12:44:15;;;;;;;5.32;2.80;;;25.40;60.00;;;;;;5008160;28;20057;-60
2021/07/08 12:46:41;;;;;;;9.77;3.50;;;25.40;55.60;;;;;;5008574;28;20778;-61
2021/07/08 12:49:08;;;;;;;9.38;3.45;;;25.20;58.10;;;;;;5008490;28;20104;-60